Time;durP1;ratioP1;P1;durP2;ratioP2;P2;SDS_P1;SDS_P2;PMS_P1;PMS_P2;Temp;Humidity;BMP_temperature;BMP_pressure;BME280_temperature;BME280_humidity;BME280_pressure;Samples;Min_cycle;Max_cycle;Signal;HPM_P1;HPM_P2
2022/08/10 00:01:38;;;;;;;5.90;3.10;;;;;;;;;;5061026;28;20032;-61
2022/08/10 00:04:04;;;;;;;6.60;3.20;;;;;;;;;;5062495;28;20032;-62
2022/08/10 00:06:29;;;;;;;6.22;3.05;;;;;;;;;;5061878;28;20104;-61
2022/08/10 00:08:55;;;;;;;5.53;3.40;;;;;;;;;;5066538;28;20032;-61
2022/08/10 00:11:20;;;;;;;6.30;3.42;;;;;;;;;;5069334;28;20037;-61
2022/08/10 00:13:46;;;;;;;6.97;3.45;;;;;;;;;;5061835;28;20424;-61
2022/08/10 00:16:12;;;;;;;5.85;3.47;;;;;;;;;;5060932;28;20025;-61
2022/08/10 00:18:38;;;;;;;6.78;3.63;;;;;;;;;;5062758;28;20091;-61
2022/08/10 00:21:05;;;;;;;6.43;4.03;;;;;;;;;;5063488;28;20096;-61
2022/08/10 00:23:31;;;;;;;6.10;3.95;;;;;;;;;;5061005;28;20028;-61
2022/08/10 00:25:56;;;;;;;10.00;4.07;;;;;;;;;;5062588;28;20100;-61
2022/08/10 00:28:22;;;;;;;6.68;3.67;;;;;;;;;;5060854;28;20021;-61
2022/08/10 00:30:47;;;;;;;15.27;4.53;;;;;;;;;;5061423;28;20051;-61
2022/08/10 00:33:13;;;;;;;5.78;4.07;;;;;;;;;;5062597;28;20460;-62
2022/08/10 00:35:39;;;;;;;7.65;4.05;;;;;;;;;;5063026;28;20378;-61
2022/08/10 00:38:04;;;;;;;7.05;3.92;;;;;;;;;;5065554;28;20027;-61
2022/08/10 00:40:30;;;;;;;6.35;3.75;;;;;;;;;;5065804;28;20039;-61
2022/08/10 00:42:55;;;;;;;5.47;3.58;;;;;;;;;;5063956;28;20419;-61
2022/08/10 00:45:21;;;;;;;8.35;4.05;;;;;;;;;;5075710;28;20536;-61
2022/08/10 00:47:46;;;;;;;9.13;3.78;;;;;;;;;;5075893;28;20020;-62
2022/08/10 00:50:12;;;;;;;8.48;3.65;;;;;;;;;;5075649;28;20028;-62
2022/08/10 00:52:38;;;;;;;5.22;3.58;;;;;;;;;;5075586;28;20039;-62
2022/08/10 00:55:05;;;;;;;7.55;3.80;;;;;;;;;;5075480;28;20461;-62
2022/08/10 00:57:31;;;;;;;7.03;4.07;;;;;;;;;;5075339;28;20039;-61
2022/08/10 00:59:57;;;;;;;8.65;3.90;;;;;;;;;;5075550;28;20466;-61
2022/08/10 01:02:22;;;;;;;6.63;3.92;;;;;;;;;;5075419;28;20032;-61
2022/08/10 01:04:48;;;;;;;5.75;3.53;;;;;;;;;;5075349;28;20388;-61
2022/08/10 01:07:28;;;;;;;6.32;4.13;;;;;;;;;;5075331;28;20016;-62
2022/08/10 01:10:11;;;;;;;6.97;3.88;;;;;;;;;;5075442;28;20461;-61
2022/08/10 01:12:43;;;;;;;8.38;4.07;;;;;;;;;;5075258;28;20446;-61
2022/08/10 01:15:21;;;;;;;8.30;4.30;;;;;;;;;;5075231;28;20112;-61
2022/08/10 01:18:08;;;;;;;8.73;4.35;;;;;;;;;;5075064;28;20512;-61
2022/08/10 01:21:04;;;;;;;11.45;4.22;;;;;;;;;;5055153;28;20075;-61
2022/08/10 01:23:57;;;;;;;5.82;4.03;;;;;;;;;;5054946;28;20033;-61
2022/08/10 01:26:47;;;;;;;5.13;3.90;;;;;;;;;;5054858;28;20025;-61
2022/08/10 01:30:00;;;;;;;7.00;4.70;;;;;;;;;;5055122;28;20020;-61
2022/08/10 01:32:50;;;;;;;6.97;3.53;;;;;;;;;;5049449;28;20033;-61
2022/08/10 01:35:16;;;;;;;8.07;4.10;;;;;;;;;;5055151;28;20405;-61
2022/08/10 01:37:50;;;;;;;7.97;3.90;;;;;;;;;;5054952;28;20111;-61
2022/08/10 01:40:21;;;;;;;6.90;3.92;;;;;;;;;;5054679;28;20063;-61
2022/08/10 01:42:48;;;;;;;10.57;4.53;;;;;;;;;;5054732;28;20071;-61
2022/08/10 01:45:15;;;;;;;8.98;4.70;;;;;;;;;;5054698;28;20021;-61
2022/08/10 01:50:35;;;;;;;12.20;5.10;;;;;;;;;;5054938;28;20040;-61
2022/08/10 01:53:11;;;;;;;8.60;4.50;;;;;;;;;;5054599;28;20032;-62
2022/08/10 01:55:37;;;;;;;8.80;4.68;;;;;;;;;;5054372;28;20031;-60
2022/08/10 01:58:05;;;;;;;10.27;4.65;;;;;;;;;;5053244;28;20100;-60
2022/08/10 02:00:35;;;;;;;7.63;4.20;;;;;;;;;;5054443;28;20029;-61
2022/08/10 02:03:04;;;;;;;6.22;4.07;;;;;;;;;;5054442;28;20070;-61
2022/08/10 02:05:31;;;;;;;8.43;4.93;;;;;;;;;;5054323;28;20052;-62
2022/08/10 02:07:59;;;;;;;9.05;5.47;;;;;;;;;;5054302;28;20120;-60
2022/08/10 02:10:27;;;;;;;8.27;5.35;;;;;;;;;;5054093;28;20033;-60
2022/08/10 02:12:56;;;;;;;10.32;5.13;;;;;;;;;;5054343;28;20025;-61
2022/08/10 02:15:24;;;;;;;8.68;5.78;;;;;;;;;;5053913;28;20466;-60
2022/08/10 02:17:58;;;;;;;10.27;5.18;;;;;;;;;;5053965;28;20045;-60
2022/08/10 02:20:27;;;;;;;7.95;5.15;;;;;;;;;;5053983;28;20021;-60
2022/08/10 02:22:59;;;;;;;8.27;5.18;;;;;;;;;;5053784;28;20036;-61
2022/08/10 02:25:26;;;;;;;8.55;5.22;;;;;;;;;;5053989;28;20043;-60
2022/08/10 02:27:53;;;;;;;12.75;6.05;;;;;;;;;;5053941;28;20388;-60
2022/08/10 02:30:21;;;;;;;8.65;5.32;;;;;;;;;;5053912;28;20359;-60
2022/08/10 02:32:48;;;;;;;10.70;5.40;;;;;;;;;;5054093;28;20029;-60
2022/08/10 02:35:15;;;;;;;10.07;5.80;;;;;;;;;;5053780;28;20025;-60
2022/08/10 02:37:45;;;;;;;10.77;5.68;;;;;;;;;;5053705;28;20048;-61
2022/08/10 02:40:11;;;;;;;8.77;5.37;;;;;;;;;;5053726;28;20029;-60
2022/08/10 02:43:08;;;;;;;8.43;4.90;;;;;;;;;;5053591;28;20103;-60
2022/08/10 02:45:47;;;;;;;13.65;5.75;;;;;;;;;;5051854;28;20033;-61
2022/08/10 02:48:28;;;;;;;8.93;5.47;;;;;;;;;;5053797;28;20021;-60
2022/08/10 02:51:04;;;;;;;10.65;5.18;;;;;;;;;;5053500;28;20070;-61
2022/08/10 02:53:37;;;;;;;9.57;5.78;;;;;;;;;;5053277;28;20033;-61
2022/08/10 02:56:17;;;;;;;8.57;6.32;;;;;;;;;;5053438;28;20481;-60
2022/08/10 02:58:46;;;;;;;9.95;6.03;;;;;;;;;;5052560;28;20033;-60
2022/08/10 03:01:17;;;;;;;13.40;7.10;;;;;;;;;;5053253;28;20017;-60
2022/08/10 03:03:48;;;;;;;10.93;5.38;;;;;;;;;;5053167;28;20031;-60
2022/08/10 03:06:19;;;;;;;10.18;5.40;;;;;;;;;;5053158;28;20025;-60
2022/08/10 03:08:46;;;;;;;9.15;5.43;;;;;;;;;;5053171;28;20086;-60
2022/08/10 03:11:32;;;;;;;9.02;5.78;;;;;;;;;;5053302;28;20021;-60
2022/08/10 03:13:59;;;;;;;10.13;5.88;;;;;;;;;;5053156;28;20036;-61
2022/08/10 03:16:26;;;;;;;7.50;4.95;;;;;;;;;;5052992;28;20492;-60
2022/08/10 03:18:53;;;;;;;9.85;6.00;;;;;;;;;;5060806;28;20503;-60
2022/08/10 03:21:21;;;;;;;10.52;5.85;;;;;;;;;;5072585;28;20039;-60
2022/08/10 03:23:48;;;;;;;9.23;5.53;;;;;;;;;;5072830;28;20077;-60
2022/08/10 03:26:15;;;;;;;9.93;5.75;;;;;;;;;;5073054;28;20028;-60
2022/08/10 03:28:42;;;;;;;9.77;5.40;;;;;;;;;;5072876;28;20093;-61
2022/08/10 03:31:08;;;;;;;8.68;5.05;;;;;;;;;;5072992;28;20021;-61
2022/08/10 03:33:38;;;;;;;11.40;4.75;;;;;;;;;;5072796;28;20426;-62
2022/08/10 03:36:05;;;;;;;12.38;5.47;;;;;;;;;;5072127;28;20333;-63
2022/08/10 03:38:31;;;;;;;14.23;5.50;;;;;;;;;;5072549;28;20354;-61
2022/08/10 03:41:02;;;;;;;10.88;6.05;;;;;;;;;;5072848;28;20024;-61
2022/08/10 03:43:27;;;;;;;;;;;;;;;;;;5073132;28;20068;-61
2022/08/10 03:46:06;;;;;;;10.75;5.57;;;;;;;;;;5072588;28;19912;-61
2022/08/10 03:48:33;;;;;;;10.25;5.18;;;;;;;;;;5072788;28;20020;-61
2022/08/10 03:51:00;;;;;;;11.63;5.40;;;;;;;;;;5072578;28;20362;-61
2022/08/10 03:53:27;;;;;;;10.18;5.03;;;;;;;;;;5072432;28;20024;-61
2022/08/10 03:55:53;;;;;;;9.57;5.40;;;;;;;;;;5072674;28;20493;-61
2022/08/10 03:58:19;;;;;;;10.25;5.20;;;;;;;;;;5072552;28;20102;-61
2022/08/10 04:00:46;;;;;;;11.57;5.20;;;;;;;;;;5072543;28;20428;-61
2022/08/10 04:03:12;;;;;;;9.75;5.35;;;;;;;;;;5072519;28;20492;-61
2022/08/10 04:05:38;;;;;;;14.70;6.20;;;;;;;;;;5072336;28;20025;-61
2022/08/10 04:08:04;;;;;;;17.20;7.05;;;;;;;;;;5072613;28;20016;-61
2022/08/10 04:10:30;;;;;;;16.98;6.40;;;;;;;;;;5074590;28;20052;-61
2022/08/10 04:12:55;;;;;;;18.45;7.30;;;;;;;;;;5076759;28;20055;-61
2022/08/10 04:15:23;;;;;;;15.23;6.78;;;;;;;;;;5076426;28;20416;-61
2022/08/10 04:17:49;;;;;;;12.00;5.97;;;;;;;;;;5076224;28;20057;-61
2022/08/10 04:20:27;;;;;;;12.07;6.57;;;;;;;;;;5075906;28;20035;-61
2022/08/10 04:22:57;;;;;;;12.80;6.43;;;;;;;;;;5076298;28;20041;-62
2022/08/10 04:25:23;;;;;;;;;;;;;;;;;;5076657;28;20374;-61
2022/08/10 04:27:50;;;;;;;10.80;6.28;;;;;;;;;;5076235;28;19919;-62
2022/08/10 04:30:16;;;;;;;13.73;6.60;;;;;;;;;;5076242;28;20127;-61
2022/08/10 04:32:44;;;;;;;18.08;9.52;;;;;;;;;;5076146;28;20521;-61
2022/08/10 04:35:11;;;;;;;12.80;7.57;;;;;;;;;;5075829;28;20078;-63
2022/08/10 04:37:38;;;;;;;17.92;7.55;;;;;;;;;;5075922;28;20108;-61
2022/08/10 04:40:05;;;;;;;17.55;6.80;;;;;;;;;;5075914;28;20052;-62
2022/08/10 04:42:30;;;;;;;11.35;6.78;;;;;;;;;;5075848;28;20023;-61
2022/08/10 04:44:56;;;;;;;16.55;6.30;;;;;;;;;;5075769;28;20017;-61
2022/08/10 04:47:22;;;;;;;18.38;6.65;;;;;;;;;;5076014;28;20135;-61
2022/08/10 04:49:47;;;;;;;13.73;5.90;;;;;;;;;;5075540;28;20508;-61
2022/08/10 04:52:13;;;;;;;13.82;10.35;;;;;;;;;;5075622;28;20077;-61
2022/08/10 04:54:38;;;;;;;15.23;8.02;;;;;;;;;;5075654;28;20073;-61
2022/08/10 04:57:04;;;;;;;12.18;5.88;;;;;;;;;;5075648;28;20082;-61
2022/08/10 04:59:30;;;;;;;10.40;5.38;;;;;;;;;;5075507;28;20138;-61
2022/08/10 05:01:55;;;;;;;11.25;5.07;;;;;;;;;;5075547;28;20163;-60
2022/08/10 05:04:21;;;;;;;11.20;5.40;;;;;;;;;;5075257;28;20032;-61
2022/08/10 05:06:46;;;;;;;7.47;4.72;;;;;;;;;;5075476;28;20047;-61
2022/08/10 05:09:12;;;;;;;8.32;5.18;;;;;;;;;;5075335;28;20051;-61
2022/08/10 05:11:37;;;;;;;6.13;4.25;;;;;;;;;;5075405;28;20028;-61
2022/08/10 05:14:03;;;;;;;10.05;5.00;;;;;;;;;;5075055;28;20028;-61
2022/08/10 05:16:28;;;;;;;11.00;5.03;;;;;;;;;;5075005;28;20137;-61
2022/08/10 05:18:54;;;;;;;30.50;5.72;;;;;;;;;;5074675;28;20040;-61
2022/08/10 05:21:19;;;;;;;9.02;5.07;;;;;;;;;;5073916;28;20027;-60
2022/08/10 05:23:45;;;;;;;11.10;5.30;;;;;;;;;;5074853;28;20024;-60
2022/08/10 05:26:10;;;;;;;10.43;5.10;;;;;;;;;;5075136;28;20059;-61
2022/08/10 05:28:36;;;;;;;11.00;5.32;;;;;;;;;;5075029;28;20442;-61
2022/08/10 05:31:01;;;;;;;12.32;5.20;;;;;;;;;;5073874;28;20059;-61
2022/08/10 05:33:27;;;;;;;10.45;4.75;;;;;;;;;;5074783;28;20032;-62
2022/08/10 05:35:52;;;;;;;9.32;4.80;;;;;;;;;;5074886;28;20028;-61
2022/08/10 05:38:19;;;;;;;9.10;4.68;;;;;;;;;;5074834;28;20055;-61
2022/08/10 05:40:47;;;;;;;6.97;4.07;;;;;;;;;;5074929;28;20103;-61
2022/08/10 05:43:17;;;;;;;8.35;4.90;;;;;;;;;;5074778;28;20074;-61
2022/08/10 05:45:42;;;;;;;13.77;5.30;;;;;;;;;;5074503;28;20031;-60
2022/08/10 05:48:08;;;;;;;7.88;4.25;;;;;;;;;;5074623;28;20032;-61
2022/08/10 05:50:34;;;;;;;12.38;5.22;;;;;;;;;;5074594;28;20028;-62
2022/08/10 05:53:00;;;;;;;8.55;4.60;;;;;;;;;;5074631;28;20036;-61
2022/08/10 05:55:29;;;;;;;9.15;4.50;;;;;;;;;;5074546;28;20036;-61
2022/08/10 05:57:55;;;;;;;9.30;3.90;;;;;;;;;;5074565;28;20031;-61
2022/08/10 06:00:23;;;;;;;6.47;4.10;;;;;;;;;;5074257;28;20024;-60
2022/08/10 06:02:51;;;;;;;9.88;4.40;;;;;;;;;;5074384;28;20100;-62
2022/08/10 06:05:22;;;;;;;7.05;4.18;;;;;;;;;;5074221;28;20428;-61
2022/08/10 06:07:51;;;;;;;7.35;4.03;;;;;;;;;;5074258;28;20028;-61
2022/08/10 06:10:19;;;;;;;10.75;4.47;;;;;;;;;;5074335;28;20058;-62
2022/08/10 06:14:59;;;;;;;8.02;3.88;;;;;;;;;;5074116;28;20021;-61
2022/08/10 06:15:36;;;;;;;;;;;;;;;;;;5074239;28;20028;-62
2022/08/10 06:18:02;;;;;;;7.10;4.38;;;;;;;;;;5073682;28;19916;-61
2022/08/10 06:20:29;;;;;;;8.38;4.63;;;;;;;;;;5074118;28;20050;-61
2022/08/10 06:22:56;;;;;;;7.82;4.18;;;;;;;;;;5074009;28;20119;-61
2022/08/10 06:25:22;;;;;;;9.35;3.70;;;;;;;;;;5074039;28;20505;-61
2022/08/10 06:27:49;;;;;;;7.05;4.20;;;;;;;;;;5073993;28;20060;-61
2022/08/10 06:30:16;;;;;;;7.15;4.10;;;;;;;;;;5073627;28;20354;-61
2022/08/10 06:32:42;;;;;;;6.78;3.75;;;;;;;;;;5073650;28;20056;-61
2022/08/10 06:35:09;;;;;;;5.55;3.90;;;;;;;;;;5073817;28;20519;-61
2022/08/10 06:37:37;;;;;;;5.97;3.58;;;;;;;;;;5073843;28;20036;-61
2022/08/10 06:40:03;;;;;;;8.38;4.05;;;;;;;;;;5073761;28;20075;-61
2022/08/10 06:42:32;;;;;;;8.00;3.80;;;;;;;;;;5073524;28;20032;-61
2022/08/10 06:45:03;;;;;;;4.60;3.70;;;;;;;;;;5073451;28;20108;-60
2022/08/10 06:47:49;;;;;;;7.57;4.00;;;;;;;;;;5073643;28;20440;-62
2022/08/10 06:50:20;;;;;;;6.82;3.65;;;;;;;;;;5073455;28;20052;-62
2022/08/10 06:52:48;;;;;;;6.05;3.70;;;;;;;;;;5073607;28;20025;-61
2022/08/10 06:55:15;;;;;;;11.93;3.88;;;;;;;;;;5073366;28;20103;-62
2022/08/10 06:57:42;;;;;;;6.93;3.58;;;;;;;;;;5073343;28;20040;-62
2022/08/10 07:00:08;;;;;;;6.40;3.70;;;;;;;;;;5072742;28;20389;-63
2022/08/10 07:02:56;;;;;;;7.20;3.55;;;;;;;;;;5069834;28;20059;-62
2022/08/10 07:05:24;;;;;;;11.90;3.80;;;;;;;;;;5071170;28;20107;-62
2022/08/10 07:07:53;;;;;;;6.25;3.45;;;;;;;;;;5071263;28;20469;-62
2022/08/10 07:10:21;;;;;;;8.18;3.67;;;;;;;;;;5072637;28;20492;-62
2022/08/10 07:12:49;;;;;;;9.95;3.67;;;;;;;;;;5072501;28;20039;-62
2022/08/10 07:15:17;;;;;;;7.70;3.70;;;;;;;;;;5072300;28;20032;-62
2022/08/10 07:17:44;;;;;;;8.10;3.45;;;;;;;;;;5056026;28;20052;-62
2022/08/10 07:20:15;;;;;;;13.10;3.63;;;;;;;;;;5065550;28;20113;-64
2022/08/10 07:22:43;;;;;;;8.20;3.03;;;;;;;;;;5072528;28;20017;-62
2022/08/10 07:25:11;;;;;;;9.80;3.50;;;;;;;;;;5072678;28;20154;-62
2022/08/10 07:27:38;;;;;;;9.45;3.35;;;;;;;;;;5072200;28;20012;-63
2022/08/10 07:30:05;;;;;;;7.93;3.40;;;;;;;;;;5072582;28;20024;-62
2022/08/10 07:32:32;;;;;;;8.18;3.03;;;;;;;;;;5072623;28;20024;-63
2022/08/10 07:34:58;;;;;;;8.40;3.30;;;;;;;;;;5072492;28;20683;-62
2022/08/10 07:37:26;;;;;;;8.07;3.42;;;;;;;;;;5072396;28;20025;-62
2022/08/10 07:39:53;;;;;;;10.20;3.60;;;;;;;;;;5072686;28;20031;-62
2022/08/10 07:42:21;;;;;;;12.43;3.65;;;;;;;;;;5072248;28;20021;-62
2022/08/10 07:44:49;;;;;;;7.88;3.28;;;;;;;;;;5071582;28;20029;-60
2022/08/10 07:47:19;;;;;;;5.93;3.45;;;;;;;;;;5072384;28;20017;-60
2022/08/10 07:49:48;;;;;;;19.77;3.50;;;;;;;;;;5072383;28;20480;-62
2022/08/10 07:52:13;;;;;;;11.55;3.17;;;;;;;;;;5070780;28;20406;-61
2022/08/10 07:54:45;;;;;;;9.70;3.28;;;;;;;;;;5072399;28;20055;-61
2022/08/10 07:57:24;;;;;;;7.85;3.22;;;;;;;;;;5071421;28;20056;-61
2022/08/10 07:59:58;;;;;;;12.57;3.05;;;;;;;;;;5072384;28;20092;-61
2022/08/10 08:02:48;;;;;;;7.63;3.35;;;;;;;;;;5072285;28;20025;-61
2022/08/10 08:05:15;;;;;;;12.48;3.33;;;;;;;;;;5069087;28;20037;-61
2022/08/10 08:07:44;;;;;;;5.85;3.13;;;;;;;;;;5072211;28;20033;-61
2022/08/10 08:10:11;;;;;;;5.15;3.10;;;;;;;;;;5072082;28;20485;-62
2022/08/10 08:12:39;;;;;;;9.15;2.95;;;;;;;;;;5072008;28;20037;-62
2022/08/10 08:15:07;;;;;;;11.43;3.47;;;;;;;;;;5072054;28;20060;-61
2022/08/10 08:17:34;;;;;;;6.30;2.67;;;;;;;;;;5071890;28;20139;-62
2022/08/10 08:20:01;;;;;;;9.45;3.08;;;;;;;;;;5072091;28;20052;-61
2022/08/10 08:22:27;;;;;;;9.65;3.10;;;;;;;;;;5071965;28;20385;-61
2022/08/10 08:24:55;;;;;;;8.35;3.30;;;;;;;;;;5071921;28;20031;-62
2022/08/10 08:27:22;;;;;;;9.10;2.95;;;;;;;;;;5071795;28;20020;-62
2022/08/10 08:29:51;;;;;;;10.52;3.03;;;;;;;;;;5072025;28;20105;-61
2022/08/10 08:32:21;;;;;;;7.38;3.13;;;;;;;;;;5072070;28;20035;-62
2022/08/10 08:34:48;;;;;;;10.10;2.88;;;;;;;;;;5071783;28;20063;-62
2022/08/10 08:37:16;;;;;;;7.63;3.33;;;;;;;;;;5071925;28;20025;-62
2022/08/10 08:39:43;;;;;;;7.00;2.75;;;;;;;;;;5071756;28;20059;-62
2022/08/10 08:42:34;;;;;;;8.32;2.70;;;;;;;;;;5071933;28;20525;-62
2022/08/10 08:45:27;;;;;;;5.03;3.08;;;;;;;;;;5071820;28;20074;-62
2022/08/10 08:48:27;;;;;;;7.05;2.58;;;;;;;;;;5071805;28;20031;-62
2022/08/10 08:51:15;;;;;;;8.63;2.42;;;;;;;;;;5071713;28;20074;-62
2022/08/10 08:54:18;;;;;;;4.45;2.40;;;;;;;;;;5070236;28;20020;-61
2022/08/10 08:56:57;;;;;;;5.93;2.63;;;;;;;;;;5056661;28;20029;-62
2022/08/10 08:59:36;;;;;;;8.82;2.97;;;;;;;;;;5055126;28;20048;-62
2022/08/10 09:02:17;;;;;;;7.05;2.47;;;;;;;;;;5055046;28;20028;-62
2022/08/10 09:04:51;;;;;;;7.35;2.72;;;;;;;;;;5055087;28;20033;-62
2022/08/10 09:07:55;;;;;;;4.50;2.60;;;;;;;;;;5054521;28;20039;-62
2022/08/10 09:10:35;;;;;;;6.10;2.47;;;;;;;;;;5054829;28;20025;-61
2022/08/10 09:13:16;;;;;;;5.97;2.72;;;;;;;;;;5055118;28;20033;-62
2022/08/10 09:16:33;;;;;;;5.82;2.30;;;;;;;;;;5053174;28;20029;-62
2022/08/10 09:19:12;;;;;;;7.68;2.33;;;;;;;;;;5023454;28;20099;-62
2022/08/10 09:21:56;;;;;;;3.87;2.30;;;;;;;;;;5013081;28;20576;-62
2022/08/10 09:24:46;;;;;;;6.57;2.60;;;;;;;;;;5012711;28;20033;-62
2022/08/10 09:27:19;;;;;;;7.18;2.55;;;;;;;;;;5012997;28;20423;-62
2022/08/10 09:29:55;;;;;;;6.75;2.65;;;;;;;;;;5012573;28;20442;-62
2022/08/10 09:32:36;;;;;;;4.80;2.25;;;;;;;;;;5012621;28;20072;-62
2022/08/10 09:35:17;;;;;;;3.25;2.28;;;;;;;;;;5012814;28;20057;-62
2022/08/10 09:37:45;;;;;;;3.88;2.25;;;;;;;;;;5012585;28;20471;-62
2022/08/10 09:40:18;;;;;;;4.50;2.42;;;;;;;;;;5012816;28;20038;-62
2022/08/10 09:43:08;;;;;;;6.50;2.40;;;;;;;;;;5012484;28;20049;-61
2022/08/10 09:45:45;;;;;;;9.50;2.65;;;;;;;;;;5012435;28;20044;-62
2022/08/10 09:48:37;;;;;;;4.30;2.30;;;;;;;;;;5012328;28;20045;-61
2022/08/10 09:51:05;;;;;;;8.88;2.58;;;;;;;;;;5012428;28;20038;-62
2022/08/10 09:53:51;;;;;;;6.32;2.58;;;;;;;;;;5015030;28;20570;-62
2022/08/10 09:56:28;;;;;;;5.78;2.17;;;;;;;;;;5054425;28;20147;-62
2022/08/10 09:59:32;;;;;;;6.47;2.60;;;;;;;;;;5064828;28;20381;-62
2022/08/10 10:02:19;;;;;;;7.55;2.38;;;;;;;;;;5054338;28;20040;-61
2022/08/10 10:05:01;;;;;;;6.53;2.55;;;;;;;;;;5053844;28;20448;-61
2022/08/10 10:07:28;;;;;;;7.20;2.60;;;;;;;;;;5053117;28;20478;-62
2022/08/10 10:10:15;;;;;;;9.45;2.38;;;;;;;;;;5053819;28;20040;-62
2022/08/10 10:12:53;;;;;;;5.22;2.42;;;;;;;;;;5054066;28;20474;-61
2022/08/10 10:15:41;;;;;;;7.85;2.45;;;;;;;;;;5053789;28;20032;-60
2022/08/10 10:18:23;;;;;;;4.97;2.30;;;;;;;;;;5055456;28;20060;-61
2022/08/10 10:20:54;;;;;;;5.38;2.20;;;;;;;;;;5073823;28;20039;-60
2022/08/10 10:23:37;;;;;;;9.90;2.47;;;;;;;;;;5073256;28;20111;-60
2022/08/10 10:26:43;;;;;;;5.95;2.25;;;;;;;;;;5073731;28;20051;-61
2022/08/10 10:29:19;;;;;;;6.18;2.40;;;;;;;;;;5073601;28;20039;-60
2022/08/10 10:32:20;;;;;;;4.53;2.33;;;;;;;;;;5068731;28;20072;-61
2022/08/10 10:34:52;;;;;;;5.30;2.42;;;;;;;;;;4991772;28;20508;-61
2022/08/10 10:37:20;;;;;;;6.53;2.08;;;;;;;;;;4991801;28;20073;-61
2022/08/10 10:39:53;;;;;;;8.05;2.25;;;;;;;;;;4991909;28;20034;-61
2022/08/10 10:42:21;;;;;;;7.70;2.17;;;;;;;;;;4992108;28;20034;-61
2022/08/10 10:45:13;;;;;;;6.80;2.40;;;;;;;;;;4991779;28;20046;-61
2022/08/10 10:48:06;;;;;;;5.47;2.20;;;;;;;;;;4992051;28;20054;-62
2022/08/10 10:50:54;;;;;;;4.18;2.05;;;;;;;;;;4991752;28;20041;-62
2022/08/10 10:53:38;;;;;;;3.75;1.88;;;;;;;;;;4991691;28;20037;-61
2022/08/10 10:56:28;;;;;;;9.63;2.63;;;;;;;;;;4991602;28;20081;-60
2022/08/10 10:59:17;;;;;;;33.58;6.32;;;;;;;;;;4991526;28;20042;-60
2022/08/10 11:02:01;;;;;;;4.88;2.20;;;;;;;;;;4991773;28;20041;-59
2022/08/10 11:04:54;;;;;;;8.32;2.70;;;;;;;;;;4991351;28;20093;-62
2022/08/10 11:07:26;;;;;;;9.30;3.47;;;;;;;;;;5009404;28;20022;-60
2022/08/10 11:09:56;;;;;;;11.32;4.13;;;;;;;;;;4991448;28;20419;-60
2022/08/10 11:12:42;;;;;;;10.48;2.85;;;;;;;;;;5046265;28;20110;-60
2022/08/10 11:15:30;;;;;;;10.27;3.30;;;;;;;;;;5052788;28;20029;-60
2022/08/10 11:18:24;;;;;;;4.22;2.33;;;;;;;;;;5052636;28;20128;-60
2022/08/10 11:21:09;;;;;;;7.18;2.30;;;;;;;;;;5029409;28;20041;-61
2022/08/10 11:24:08;;;;;;;8.68;2.92;;;;;;;;;;5029980;28;20046;-61
2022/08/10 11:26:59;;;;;;;8.65;2.88;;;;;;;;;;5030542;28;20402;-61
2022/08/10 11:29:41;;;;;;;5.55;2.42;;;;;;;;;;5030217;28;20033;-61
2022/08/10 11:32:24;;;;;;;12.27;3.05;;;;;;;;;;5030458;28;20029;-61
2022/08/10 11:35:04;;;;;;;7.53;2.58;;;;;;;;;;5030125;28;20040;-61
2022/08/10 11:37:48;;;;;;;;;;;;;;;;;;5030920;28;20501;-61
2022/08/10 11:40:28;;;;;;;6.57;2.55;;;;;;;;;;5030368;28;20004;-61
2022/08/10 11:42:59;;;;;;;8.00;2.10;;;;;;;;;;5030590;28;20021;-61
2022/08/10 11:45:30;;;;;;;5.57;2.50;;;;;;;;;;5030444;28;20060;-61
2022/08/10 11:48:01;;;;;;;8.13;3.40;;;;;;;;;;5030490;28;20029;-61
2022/08/10 11:50:42;;;;;;;3.50;2.05;;;;;;;;;;5030203;28;20081;-62
2022/08/10 11:53:19;;;;;;;5.78;2.28;;;;;;;;;;5029513;28;20128;-61
2022/08/10 11:55:51;;;;;;;7.05;2.22;;;;;;;;;;5030233;28;20545;-61
2022/08/10 12:01:09;;;;;;;5.45;2.30;;;;;;;;;;5072132;28;20542;-62
2022/08/10 12:03:40;;;;;;;5.72;2.22;;;;;;;;;;5071724;28;20384;-61
2022/08/10 12:06:12;;;;;;;4.93;1.92;;;;;;;;;;5071978;28;20454;-61
2022/08/10 12:08:40;;;;;;;4.15;2.00;;;;;;;;;;5071058;28;20047;-61
2022/08/10 12:11:13;;;;;;;5.93;2.25;;;;;;;;;;5071986;28;20031;-61
2022/08/10 12:13:51;;;;;;;6.97;2.30;;;;;;;;;;5072093;28;20066;-61
2022/08/10 12:16:22;;;;;;;3.80;1.70;;;;;;;;;;5054518;28;20100;-61
2022/08/10 12:19:09;;;;;;;4.32;2.10;;;;;;;;;;5066241;28;20052;-60
2022/08/10 12:21:45;;;;;;;3.47;1.92;;;;;;;;;;5092386;28;20494;-60
2022/08/10 12:24:17;;;;;;;8.63;2.40;;;;;;;;;;5091864;28;20090;-60
2022/08/10 12:26:54;;;;;;;10.10;2.97;;;;;;;;;;5092135;28;20089;-61
2022/08/10 12:29:26;;;;;;;8.60;2.35;;;;;;;;;;5092007;28;20488;-61
2022/08/10 12:32:13;;;;;;;6.25;2.30;;;;;;;;;;5093338;28;20032;-61
2022/08/10 12:34:50;;;;;;;6.65;2.38;;;;;;;;;;5095780;28;20024;-61
2022/08/10 12:37:41;;;;;;;5.05;2.38;;;;;;;;;;5096013;28;20031;-61
2022/08/10 12:40:16;;;;;;;4.35;2.20;;;;;;;;;;5095972;28;20115;-61
2022/08/10 12:43:07;;;;;;;3.08;2.10;;;;;;;;;;5095783;28;20024;-61
2022/08/10 12:46:11;;;;;;;6.28;2.30;;;;;;;;;;5095820;28;20223;-61
2022/08/10 12:48:53;;;;;;;4.68;2.33;;;;;;;;;;5033362;28;20033;-61
2022/08/10 12:51:29;;;;;;;11.13;2.47;;;;;;;;;;4995226;28;20499;-61
2022/08/10 12:54:16;;;;;;;7.90;2.42;;;;;;;;;;4993993;28;20121;-62
2022/08/10 12:56:47;;;;;;;5.93;2.30;;;;;;;;;;5011405;28;20037;-61
2022/08/10 12:59:14;;;;;;;5.53;2.15;;;;;;;;;;5013357;28;20049;-61
2022/08/10 13:01:42;;;;;;;5.65;2.20;;;;;;;;;;5013312;28;20360;-62
2022/08/10 13:04:13;;;;;;;6.78;2.28;;;;;;;;;;5013125;28;20037;-62
2022/08/10 13:06:44;;;;;;;5.05;2.30;;;;;;;;;;5013237;28;20191;-61
2022/08/10 13:09:13;;;;;;;7.28;2.42;;;;;;;;;;5013264;28;20364;-61
2022/08/10 13:11:58;;;;;;;6.68;2.53;;;;;;;;;;5013316;28;20041;-61
2022/08/10 13:14:45;;;;;;;9.75;2.60;;;;;;;;;;5013046;28;20084;-61
2022/08/10 13:17:13;;;;;;;10.93;2.40;;;;;;;;;;5012695;28;20061;-62
2022/08/10 13:19:44;;;;;;;9.43;2.45;;;;;;;;;;5012908;28;20057;-61
2022/08/10 13:22:11;;;;;;;6.88;2.35;;;;;;;;;;5013188;28;20034;-62
2022/08/10 13:24:41;;;;;;;4.40;2.33;;;;;;;;;;5023581;28;20048;-61
2022/08/10 13:27:11;;;;;;;6.28;2.50;;;;;;;;;;5074792;28;20025;-61
2022/08/10 13:29:49;;;;;;;;;;;;;;;;;;5075029;28;20016;-62
2022/08/10 13:32:19;;;;;;;5.07;2.40;;;;;;;;;;5074949;28;19916;-61
2022/08/10 13:34:46;;;;;;;6.07;2.40;;;;;;;;;;5074456;28;20028;-61
2022/08/10 13:37:20;;;;;;;5.20;2.25;;;;;;;;;;5074714;28;20546;-62
2022/08/10 13:39:51;;;;;;;4.80;2.00;;;;;;;;;;5074743;28;20103;-63
2022/08/10 13:42:19;;;;;;;8.27;2.08;;;;;;;;;;5073680;28;20025;-62
2022/08/10 13:44:50;;;;;;;5.15;1.88;;;;;;;;;;5074042;28;20469;-62
2022/08/10 13:47:17;;;;;;;6.65;2.20;;;;;;;;;;5074238;28;20035;-62
2022/08/10 13:49:54;;;;;;;8.27;2.17;;;;;;;;;;5074556;28;20024;-62
2022/08/10 13:52:22;;;;;;;4.70;2.28;;;;;;;;;;5074470;28;20354;-62
2022/08/10 13:54:48;;;;;;;7.82;2.30;;;;;;;;;;5073931;28;20036;-62
2022/08/10 13:57:35;;;;;;;5.63;2.08;;;;;;;;;;5074259;28;20024;-61
2022/08/10 14:00:06;;;;;;;4.32;2.15;;;;;;;;;;5073830;28;20028;-62
2022/08/10 14:02:59;;;;;;;8.55;2.22;;;;;;;;;;5074065;28;20032;-62
2022/08/10 14:05:28;;;;;;;4.75;1.90;;;;;;;;;;5074120;28;20032;-62
2022/08/10 14:07:56;;;;;;;4.75;2.00;;;;;;;;;;5074044;28;20526;-62
2022/08/10 14:10:22;;;;;;;5.43;2.17;;;;;;;;;;5074033;28;20035;-61
2022/08/10 14:12:49;;;;;;;4.13;2.00;;;;;;;;;;5073806;28;20063;-61
2022/08/10 14:15:17;;;;;;;4.38;2.00;;;;;;;;;;5073495;28;20040;-61
2022/08/10 14:17:49;;;;;;;7.22;2.08;;;;;;;;;;5073666;28;20574;-61
2022/08/10 14:20:16;;;;;;;3.67;1.77;;;;;;;;;;5073609;28;20382;-61
2022/08/10 14:22:42;;;;;;;7.22;2.40;;;;;;;;;;5073496;28;20082;-61
2022/08/10 14:25:10;;;;;;;4.22;2.00;;;;;;;;;;5073521;28;20052;-62
2022/08/10 14:27:42;;;;;;;3.15;2.30;;;;;;;;;;5073481;28;20553;-62
2022/08/10 14:30:13;;;;;;;2.80;2.08;;;;;;;;;;5073727;28;20035;-61
2022/08/10 14:32:46;;;;;;;4.72;2.05;;;;;;;;;;5073616;28;20038;-61
2022/08/10 14:35:13;;;;;;;4.72;1.90;;;;;;;;;;5073592;28;20024;-62
2022/08/10 14:37:45;;;;;;;4.72;2.10;;;;;;;;;;5073412;28;20456;-63
2022/08/10 14:40:17;;;;;;;7.25;2.25;;;;;;;;;;5073380;28;20025;-63
2022/08/10 14:42:50;;;;;;;2.78;2.22;;;;;;;;;;5073001;28;20722;-61
2022/08/10 14:45:23;;;;;;;3.70;2.22;;;;;;;;;;5073406;28;20484;-63
2022/08/10 14:47:52;;;;;;;5.95;2.22;;;;;;;;;;5073373;28;20025;-62
2022/08/10 14:50:20;;;;;;;4.00;1.90;;;;;;;;;;5073135;28;20024;-62
2022/08/10 14:52:47;;;;;;;2.90;2.17;;;;;;;;;;5072460;28;20035;-62
2022/08/10 14:55:14;;;;;;;8.88;2.17;;;;;;;;;;5073142;28;20024;-62
2022/08/10 14:57:41;;;;;;;4.70;1.80;;;;;;;;;;5072959;28;20428;-62
2022/08/10 15:00:09;;;;;;;5.15;2.45;;;;;;;;;;5073130;28;20020;-62
2022/08/10 15:02:44;;;;;;;7.43;4.18;;;;;;;;;;5073009;28;20048;-62
2022/08/10 15:05:14;;;;;;;8.88;2.50;;;;;;;;;;5072890;28;20021;-61
2022/08/10 15:07:43;;;;;;;12.52;2.58;;;;;;;;;;5072965;28;20381;-61
2022/08/10 15:10:09;;;;;;;6.00;2.30;;;;;;;;;;5073039;28;20108;-62
2022/08/10 15:12:38;;;;;;;8.55;2.55;;;;;;;;;;5072356;28;20112;-62
2022/08/10 15:15:09;;;;;;;6.60;2.40;;;;;;;;;;5072682;28;20545;-61
2022/08/10 15:17:40;;;;;;;5.30;2.35;;;;;;;;;;5072723;28;20064;-62
2022/08/10 15:20:18;;;;;;;4.68;2.70;;;;;;;;;;5090869;28;20068;-62